Time;durP1;ratioP1;P1;durP2;ratioP2;P2;SDS_P1;SDS_P2;PMS_P1;PMS_P2;Temp;Humidity;BMP_temperature;BMP_pressure;BME280_temperature;BME280_humidity;BME280_pressure;Samples;Min_cycle;Max_cycle;Signal;HPM_P1;HPM_P2
2022/05/10 00:00:21;;;;;;;14.38;10.57;;;;;;;15.14;61.03;101905.91;5105051;28;20080;-67
2022/05/10 00:02:55;;;;;;;16.08;10.95;;;;;;;15.13;61.12;101904.16;5118134;28;20042;-67
2022/05/10 00:05:32;;;;;;;16.90;11.20;;;;;;;15.12;61.41;101910.41;5108731;28;20047;-68
2022/05/10 00:08:04;;;;;;;17.98;11.70;;;;;;;15.10;61.88;101914.91;5107383;28;20048;-68
2022/05/10 00:10:32;;;;;;;17.27;12.68;;;;;;;15.07;61.58;101907.88;5113398;28;20028;-67
2022/05/10 00:12:59;;;;;;;15.32;11.65;;;;;;;15.04;61.64;101901.81;5110706;28;20436;-66
2022/05/10 00:15:27;;;;;;;19.70;13.45;;;;;;;15.00;61.81;101898.38;5108334;28;20040;-67
2022/05/10 00:17:55;;;;;;;17.30;13.00;;;;;;;14.97;61.83;101905.59;5112835;28;20091;-67
2022/05/10 00:20:25;;;;;;;16.02;12.38;;;;;;;14.94;61.82;101903.91;5105596;28;20040;-67
2022/05/10 00:22:53;;;;;;;18.58;13.02;;;;;;;14.88;61.86;101904.09;5097544;28;20044;-66
2022/05/10 00:25:28;;;;;;;16.17;11.98;;;;;;;14.81;62.34;101900.75;5095421;28;20047;-68
2022/05/10 00:28:00;;;;;;;15.20;11.90;;;;;;;14.75;62.37;101901.81;5110581;28;20039;-68
2022/05/10 00:30:27;;;;;;;17.60;12.60;;;;;;;14.68;62.48;101907.38;5097326;28;20044;-67
2022/05/10 00:32:55;;;;;;;19.40;13.10;;;;;;;14.63;62.52;101903.94;5102054;28;20040;-67
2022/05/10 00:35:26;;;;;;;18.73;13.52;;;;;;;14.56;62.78;101892.63;5111068;28;20078;-68
2022/05/10 00:37:58;;;;;;;16.42;13.40;;;;;;;14.49;62.93;101894.63;5111861;28;20036;-67
2022/05/10 00:40:34;;;;;;;19.83;14.60;;;;;;;14.43;63.17;101893.03;5104392;28;20051;-66
2022/05/10 00:43:32;;;;;;;19.58;14.43;;;;;;;14.35;63.16;101881.75;5109608;28;20123;-67
2022/05/10 00:46:07;;;;;;;18.60;12.95;;;;;;;14.27;63.32;101878.47;5101302;28;20051;-67
2022/05/10 00:48:48;;;;;;;18.92;13.88;;;;;;;14.22;63.47;101888.34;5110507;28;20036;-68
2022/05/10 00:51:44;;;;;;;18.08;14.40;;;;;;;14.16;63.98;101884.09;5105904;28;20046;-68
2022/05/10 00:54:50;;;;;;;18.65;13.27;;;;;;;14.12;64.00;101879.78;5102782;28;20044;-67
2022/05/10 00:57:36;;;;;;;18.63;13.30;;;;;;;14.05;64.31;101884.38;5110883;28;20048;-67
2022/05/10 01:00:12;;;;;;;17.70;14.68;;;;;;;14.01;64.27;101885.41;5104121;28;20391;-67
2022/05/10 01:02:46;;;;;;;19.58;15.00;;;;;;;13.95;64.35;101878.50;5109796;27;20099;-68
2022/05/10 01:05:14;;;;;;;22.13;15.02;;;;;;;13.92;64.52;101877.72;5101040;28;20544;-66
2022/05/10 01:07:58;;;;;;;21.10;15.85;;;;;;;13.89;64.84;101880.44;5104344;28;20041;-68
2022/05/10 01:10:41;;;;;;;19.88;14.30;;;;;;;13.82;64.89;101872.66;5107439;27;20101;-67
2022/05/10 01:13:29;;;;;;;19.58;14.82;;;;;;;13.77;65.08;101865.75;5104459;28;20123;-67
2022/05/10 01:16:05;;;;;;;20.85;14.70;;;;;;;13.73;65.28;101866.72;5104416;28;20044;-66
2022/05/10 01:18:34;;;;;;;17.80;14.90;;;;;;;13.70;65.45;101873.00;5111041;28;20080;-66
2022/05/10 01:21:37;;;;;;;17.08;14.05;;;;;;;13.66;65.53;101864.25;5108353;28;20453;-67
2022/05/10 01:24:28;;;;;;;19.83;15.25;;;;;;;13.63;65.82;101860.84;5100160;27;20056;-67
2022/05/10 01:27:13;;;;;;;22.23;16.05;;;;;;;13.58;65.96;101855.63;5103501;28;20498;-67
2022/05/10 01:29:53;;;;;;;21.65;15.60;;;;;;;13.53;65.79;101852.25;5097672;28;20090;-67
2022/05/10 01:33:37;;;;;;;19.60;15.73;;;;;;;13.49;66.29;101842.63;5096472;28;20048;-67
2022/05/10 01:35:42;;;;;;;18.63;14.98;;;;;;;13.46;66.66;101845.38;5087386;28;20809;-67
2022/05/10 01:38:41;;;;;;;21.02;15.60;;;;;;;13.42;66.58;101844.59;5095698;28;20492;-66
2022/05/10 01:41:15;;;;;;;19.10;14.80;;;;;;;13.38;66.95;101844.69;5107790;28;20429;-65
2022/05/10 01:44:03;;;;;;;18.80;15.20;;;;;;;13.33;67.15;101848.31;5103367;28;20045;-66
2022/05/10 01:46:32;;;;;;;20.73;16.40;;;;;;;13.28;67.76;101838.75;5109503;28;21045;-67
2022/05/10 01:49:17;;;;;;;18.75;16.20;;;;;;;13.23;67.31;101849.44;5100396;28;20059;-67
2022/05/10 01:52:14;;;;;;;19.40;15.77;;;;;;;13.15;67.60;101835.53;5104822;28;20040;-69
2022/05/10 01:54:41;;;;;;;24.10;16.83;;;;;;;13.10;67.91;101842.72;5106675;28;20732;-65
2022/05/10 01:57:15;;;;;;;19.80;16.48;;;;;;;13.08;68.34;101842.78;5106605;28;20038;-65
2022/05/10 01:59:52;;;;;;;;;;;;;;;13.01;67.86;101838.53;5099709;28;20056;-65
2022/05/10 02:02:26;;;;;;;19.23;15.32;;;;;;;12.96;67.87;101829.81;5103219;28;19924;-65
2022/05/10 02:05:03;;;;;;;21.95;15.63;;;;;;;12.91;68.36;101829.09;5096331;28;20080;-65
2022/05/10 02:07:32;;;;;;;20.75;15.65;;;;;;;12.86;68.89;101829.19;5100872;28;20036;-66
2022/05/10 02:10:12;;;;;;;21.88;16.00;;;;;;;12.82;69.27;101823.09;5100738;28;20140;-66
2022/05/10 02:13:09;;;;;;;22.58;16.55;;;;;;;12.78;69.40;101818.78;5109210;28;20048;-67
2022/05/10 02:16:11;;;;;;;19.45;16.00;;;;;;;12.73;69.40;101824.19;5107009;28;20042;-66
2022/05/10 02:19:12;;;;;;;27.27;17.25;;;;;;;12.64;69.16;101816.47;5110010;28;20056;-67
2022/05/10 02:22:06;;;;;;;20.98;17.55;;;;;;;12.58;69.26;101814.84;5107338;28;20513;-67
2022/05/10 02:24:44;;;;;;;21.65;16.40;;;;;;;12.52;69.50;101811.47;5092114;28;20068;-66
2022/05/10 02:27:20;;;;;;;18.75;15.88;;;;;;;12.48;69.51;101810.66;5105986;28;20038;-66
2022/05/10 02:30:02;;;;;;;22.98;16.38;;;;;;;12.44;69.38;101811.63;5096047;28;20032;-66
2022/05/10 02:35:26;;;;;;;21.92;16.48;;;;;;;12.35;69.81;101807.44;5102136;28;20040;-67
2022/05/10 02:37:53;;;;;;;21.98;16.85;;;;;;;12.32;69.81;101806.59;5101266;28;20060;-67
2022/05/10 02:40:22;;;;;;;20.70;16.88;;;;;;;12.29;70.12;101804.06;5105950;28;20028;-67
2022/05/10 02:42:51;;;;;;;20.83;16.52;;;;;;;12.24;69.86;101806.81;5102051;28;20045;-67
2022/05/10 02:45:18;;;;;;;21.38;17.42;;;;;;;12.22;70.13;101806.81;5092361;28;20041;-67
2022/05/10 02:47:49;;;;;;;22.60;17.13;;;;;;;12.20;70.14;101797.19;5102931;28;20047;-68
2022/05/10 02:50:30;;;;;;;24.08;16.77;;;;;;;12.19;70.63;101801.63;5102843;28;20043;-67
2022/05/10 02:52:57;;;;;;;23.65;17.05;;;;;;;12.16;70.35;101795.53;5106065;28;20039;-67
2022/05/10 02:55:32;;;;;;;23.02;17.95;;;;;;;12.15;70.65;101791.16;5105280;28;20498;-68
2022/05/10 02:58:08;;;;;;;22.25;17.50;;;;;;;12.13;70.71;101787.66;5102142;28;20580;-67
2022/05/10 03:00:37;;;;;;;21.65;18.42;;;;;;;12.08;70.75;101799.19;5103169;28;20098;-67
2022/05/10 03:03:13;;;;;;;23.15;18.08;;;;;;;12.07;70.67;101786.00;5104550;28;20086;-67
2022/05/10 03:05:40;;;;;;;22.67;17.60;;;;;;;12.07;70.70;101789.50;5108258;28;20036;-68
2022/05/10 03:08:07;;;;;;;22.17;17.95;;;;;;;12.07;70.75;101780.72;5100250;28;20079;-68
2022/05/10 03:10:34;;;;;;;22.83;18.23;;;;;;;12.07;71.01;101781.59;5102889;28;20036;-68
2022/05/10 03:13:02;;;;;;;24.50;18.13;;;;;;;12.09;70.84;101778.94;5096975;28;20040;-68
2022/05/10 03:15:29;;;;;;;23.63;18.77;;;;;;;12.11;71.04;101772.69;5099031;28;20487;-69
2022/05/10 03:17:57;;;;;;;23.67;18.58;;;;;;;12.14;71.16;101777.03;5103852;28;20047;-69
2022/05/10 03:20:24;;;;;;;25.15;18.50;;;;;;;12.17;71.10;101770.81;5101510;28;20036;-69
2022/05/10 03:22:51;;;;;;;25.13;18.15;;;;;;;12.17;71.37;101773.44;5104232;28;20148;-69
2022/05/10 03:25:21;;;;;;;24.10;17.85;;;;;;;12.19;71.01;101761.97;5100613;27;20136;-69
2022/05/10 03:27:49;;;;;;;25.23;18.48;;;;;;;12.21;71.18;101765.41;5086683;28;20123;-68
2022/05/10 03:30:18;;;;;;;21.48;18.88;;;;;;;12.24;71.04;101767.16;5105128;28;20051;-69
2022/05/10 03:32:45;;;;;;;25.67;18.90;;;;;;;12.26;71.04;101765.31;5102507;28;20044;-69
2022/05/10 03:35:15;;;;;;;21.35;17.48;;;;;;;12.28;71.04;101766.16;5112606;28;20044;-69
2022/05/10 03:37:43;;;;;;;24.65;18.90;;;;;;;12.30;71.00;101766.13;5109204;28;20048;-68
2022/05/10 03:40:12;;;;;;;23.10;18.88;;;;;;;12.30;71.42;101763.50;5110362;28;20568;-69
2022/05/10 03:42:51;;;;;;;22.10;18.65;;;;;;;12.30;71.75;101755.56;5102396;28;20045;-68
2022/05/10 03:45:22;;;;;;;28.13;19.85;;;;;;;12.30;71.40;101753.78;5107483;28;20040;-68
2022/05/10 03:47:52;;;;;;;22.98;18.98;;;;;;;12.32;71.51;101748.44;5103117;28;20040;-69
2022/05/10 03:50:23;;;;;;;26.90;18.52;;;;;;;12.35;71.97;101745.75;5103267;28;20043;-68
2022/05/10 03:52:53;;;;;;;21.92;17.73;;;;;;;12.35;71.83;101749.28;5108094;28;20043;-69
2022/05/10 03:55:25;;;;;;;25.63;18.63;;;;;;;12.36;71.61;101744.84;5112443;28;20048;-69
2022/05/10 03:57:53;;;;;;;24.25;18.55;;;;;;;12.36;71.68;101743.03;5111558;28;20036;-68
2022/05/10 04:00:28;;;;;;;27.67;19.98;;;;;;;12.39;71.63;101750.06;5112001;27;20560;-68
2022/05/10 04:02:57;;;;;;;29.35;20.50;;;;;;;12.40;71.68;101747.38;5112307;28;20048;-68
2022/05/10 04:05:27;;;;;;;22.60;19.17;;;;;;;12.43;72.04;101742.03;5106425;28;20281;-69
2022/05/10 04:07:54;;;;;;;27.27;19.98;;;;;;;12.47;71.86;101741.94;5106031;28;20037;-68
2022/05/10 04:10:22;;;;;;;25.52;19.40;;;;;;;12.51;71.81;101738.31;5104159;28;20040;-67
2022/05/10 04:12:50;;;;;;;25.48;20.35;;;;;;;12.55;71.86;101740.00;5105610;28;20079;-67
2022/05/10 04:15:19;;;;;;;27.45;21.25;;;;;;;12.58;71.92;101738.13;5111704;28;20044;-67
2022/05/10 04:17:46;;;;;;;29.23;21.50;;;;;;;12.62;71.97;101741.56;5108977;28;20080;-68
2022/05/10 04:20:15;;;;;;;29.10;21.33;;;;;;;12.67;71.73;101744.09;5098498;28;20037;-67
2022/05/10 04:22:42;;;;;;;28.50;20.35;;;;;;;12.71;71.76;101736.03;5103264;28;20848;-68
2022/05/10 04:25:23;;;;;;;25.90;21.38;;;;;;;12.78;71.60;101736.78;5110187;28;20145;-67
2022/05/10 04:27:52;;;;;;;29.38;21.70;;;;;;;12.85;71.54;101738.34;5103585;28;20511;-68
2022/05/10 04:30:21;;;;;;;25.65;20.85;;;;;;;12.94;71.33;101745.19;5106050;28;20529;-70
2022/05/10 04:32:49;;;;;;;32.10;23.00;;;;;;;13.01;71.40;101737.97;5104266;28;20040;-69
2022/05/10 04:35:16;;;;;;;31.95;22.40;;;;;;;13.09;71.26;101743.03;5108085;28;20040;-66
2022/05/10 04:37:43;;;;;;;28.60;22.02;;;;;;;13.16;71.08;101744.63;5107995;27;20123;-67
2022/05/10 04:43:12;;;;;;;26.73;21.70;;;;;;;13.33;70.94;101737.09;5082441;28;20867;-65
2022/05/10 04:45:41;;;;;;;27.55;21.10;;;;;;;13.44;70.69;101741.25;5112234;28;20064;-65
2022/05/10 04:48:08;;;;;;;29.75;21.15;;;;;;;13.53;70.73;101733.03;5105347;28;20528;-69
2022/05/10 04:50:35;;;;;;;32.05;22.42;;;;;;;13.65;70.30;101735.34;5101923;28;20109;-68
2022/05/10 04:53:03;;;;;;;28.13;23.23;;;;;;;13.76;70.20;101736.81;5087217;28;20047;-71
2022/05/10 04:55:33;;;;;;;31.42;23.58;;;;;;;13.89;70.15;101735.50;5109344;27;20479;-69
2022/05/10 04:58:00;;;;;;;30.27;22.42;;;;;;;14.01;70.15;101734.28;5100065;28;20049;-68
2022/05/10 05:00:30;;;;;;;27.10;22.05;;;;;;;14.14;70.10;101740.06;5102228;28;20041;-68
2022/05/10 05:02:57;;;;;;;30.15;22.58;;;;;;;14.28;69.60;101729.03;5101423;28;20055;-69
2022/05/10 05:05:26;;;;;;;31.98;24.00;;;;;;;14.43;69.45;101728.56;5108784;28;20033;-69
2022/05/10 05:07:53;;;;;;;30.42;22.90;;;;;;;14.58;69.18;101735.16;5107288;28;20036;-69
2022/05/10 05:10:20;;;;;;;32.10;23.38;;;;;;;14.74;68.84;101729.34;5109342;28;20421;-69
2022/05/10 05:12:47;;;;;;;38.47;23.95;;;;;;;14.91;68.67;101729.63;5111255;28;20044;-69
2022/05/10 05:15:15;;;;;;;34.28;23.75;;;;;;;15.06;68.51;101735.34;5105134;28;20047;-70
2022/05/10 05:17:48;;;;;;;35.08;23.17;;;;;;;15.29;68.00;101729.22;5112110;28;20832;-68
2022/05/10 05:20:15;;;;;;;33.33;22.38;;;;;;;15.64;67.04;101731.50;5110107;28;20052;-70
2022/05/10 05:22:45;;;;;;;31.63;23.13;;;;;;;16.06;66.63;101716.66;5104017;28;20040;-69
2022/05/10 05:25:13;;;;;;;27.40;21.83;;;;;;;16.41;65.30;101723.22;5114846;27;20489;-70
2022/05/10 05:27:40;;;;;;;31.55;21.58;;;;;;;16.66;64.60;101731.97;5106757;27;20047;-68
2022/05/10 05:30:12;;;;;;;29.35;21.05;;;;;;;16.88;63.83;101722.16;5087661;28;20465;-69
2022/05/10 05:32:42;;;;;;;32.67;22.55;;;;;;;17.09;63.04;101722.19;5105718;27;20040;-70
2022/05/10 05:35:11;;;;;;;31.52;21.83;;;;;;;17.29;62.38;101715.97;5094469;28;20040;-69
2022/05/10 05:37:38;;;;;;;28.08;21.30;;;;;;;17.46;61.70;101714.31;5094162;28;20037;-70
2022/05/10 05:40:16;;;;;;;30.25;20.67;;;;;;;17.70;60.74;101720.34;5102792;28;20044;-70
2022/05/10 05:42:47;;;;;;;32.13;21.17;;;;;;;17.90;60.60;101723.88;5097734;28;20045;-69
2022/05/10 05:45:18;;;;;;;31.20;21.48;;;;;;;17.87;60.25;101727.53;5108860;27;20043;-70
2022/05/10 05:47:46;;;;;;;30.52;21.38;;;;;;;17.79;60.09;101717.25;5091162;27;20042;-70
2022/05/10 05:50:17;;;;;;;34.08;20.73;;;;;;;17.72;60.06;101723.78;5100769;27;20064;-69
2022/05/10 05:52:46;;;;;;;31.27;20.88;;;;;;;17.67;60.06;101718.69;5100025;28;20040;-69
2022/05/10 05:55:16;;;;;;;26.95;20.88;;;;;;;17.66;60.33;101716.94;5097143;28;20045;-69
2022/05/10 05:57:43;;;;;;;26.45;20.40;;;;;;;17.66;60.30;101716.09;5097892;28;20043;-70
2022/05/10 06:00:22;;;;;;;24.88;20.38;;;;;;;17.64;60.50;101716.19;5104256;28;20044;-70
2022/05/10 06:02:50;;;;;;;27.10;20.08;;;;;;;17.62;60.37;101717.16;5096002;28;20044;-68
2022/05/10 06:05:20;;;;;;;32.63;20.42;;;;;;;17.57;60.68;101714.69;5110405;28;20111;-70
2022/05/10 06:07:47;;;;;;;42.80;21.08;;;;;;;17.55;60.88;101713.91;5085001;28;20047;-69
2022/05/10 06:10:14;;;;;;;26.58;20.52;;;;;;;17.56;61.07;101712.97;5112836;28;20098;-70
2022/05/10 06:12:42;;;;;;;29.77;20.88;;;;;;;17.59;61.03;101707.50;5111104;28;20043;-69
2022/05/10 06:15:15;;;;;;;26.38;20.00;;;;;;;17.65;61.05;101709.03;5084115;28;20063;-69
2022/05/10 06:17:45;;;;;;;27.42;20.25;;;;;;;17.74;61.25;101708.59;5108967;28;20044;-71
2022/05/10 06:20:17;;;;;;;33.30;20.60;;;;;;;17.84;61.05;101709.88;5086152;28;20044;-69
2022/05/10 06:22:48;;;;;;;27.40;20.23;;;;;;;17.95;61.03;101712.06;5112285;28;20043;-70
2022/05/10 06:25:19;;;;;;;30.52;20.30;;;;;;;18.05;60.79;101709.84;5100103;28;20044;-70
2022/05/10 06:27:49;;;;;;;28.52;19.95;;;;;;;18.13;60.72;101699.66;5104463;28;20044;-68
2022/05/10 06:30:19;;;;;;;23.92;18.67;;;;;;;18.27;60.51;101696.31;5107269;28;20036;-68
2022/05/10 06:32:46;;;;;;;27.98;19.95;;;;;;;18.50;60.12;101698.78;5106200;28;20513;-69
2022/05/10 06:35:16;;;;;;;33.60;19.30;;;;;;;18.75;59.81;101691.25;5092876;28;20036;-70
2022/05/10 06:40:34;;;;;;;25.98;18.45;;;;;;;19.12;58.76;101682.31;5091526;28;20044;-71
2022/05/10 06:43:04;;;;;;;29.00;18.20;;;;;;;19.26;58.92;101681.56;5100303;28;20052;-72
2022/05/10 06:45:36;;;;;;;22.95;17.13;;;;;;;19.38;58.32;101684.44;5106227;28;20043;-70
2022/05/10 06:48:03;;;;;;;29.40;18.05;;;;;;;19.50;57.98;101679.38;5102759;28;20123;-70
2022/05/10 06:50:31;;;;;;;24.10;17.23;;;;;;;19.60;57.97;101682.38;5107520;28;20450;-70
2022/05/10 06:52:59;;;;;;;29.52;18.77;;;;;;;19.75;57.63;101680.66;5102947;28;20501;-69
2022/05/10 06:55:30;;;;;;;24.00;18.05;;;;;;;19.89;57.32;101680.78;5086566;28;20492;-71
2022/05/10 06:57:59;;;;;;;25.65;17.27;;;;;;;20.06;56.90;101678.97;5097500;28;20086;-70
2022/05/10 07:00:34;;;;;;;24.55;16.73;;;;;;;20.19;56.50;101676.47;5081543;28;20048;-70
2022/05/10 07:03:13;;;;;;;26.77;17.88;;;;;;;20.26;56.33;101677.81;5100278;28;20071;-69
2022/05/10 07:05:43;;;;;;;25.10;16.08;;;;;;;20.30;56.37;101669.53;5097177;28;20043;-69
2022/05/10 07:08:12;;;;;;;20.63;16.45;;;;;;;20.38;56.30;101669.09;5103257;28;20040;-70
2022/05/10 07:10:41;;;;;;;24.98;16.35;;;;;;;20.50;56.16;101674.66;5108164;28;20044;-71
2022/05/10 07:13:08;;;;;;;24.83;16.52;;;;;;;20.59;56.02;101664.25;5102211;28;20040;-71
2022/05/10 07:15:35;;;;;;;27.60;15.98;;;;;;;20.73;55.90;101667.94;5117823;28;20040;-70
2022/05/10 07:18:03;;;;;;;28.10;14.45;;;;;;;20.84;55.51;101664.63;5108401;28;20044;-70
2022/05/10 07:20:31;;;;;;;18.50;13.25;;;;;;;20.89;54.72;101659.84;5102447;28;20048;-69
2022/05/10 07:22:58;;;;;;;22.70;13.40;;;;;;;20.94;54.79;101663.97;5108803;28;20064;-70
2022/05/10 07:25:25;;;;;;;16.35;12.27;;;;;;;21.03;54.22;101659.84;5103847;28;20418;-70
2022/05/10 07:27:53;;;;;;;16.27;12.40;;;;;;;21.11;54.31;101651.34;5111870;28;20080;-70
2022/05/10 07:30:21;;;;;;;16.80;12.43;;;;;;;21.23;53.86;101655.06;5102903;28;20032;-69
2022/05/10 07:32:50;;;;;;;21.90;11.77;;;;;;;21.31;53.43;101654.59;5111755;28;20072;-70
2022/05/10 07:36:23;;;;;;;18.65;12.07;;;;;;;21.37;53.32;101655.06;5093740;28;20414;-68
2022/05/10 07:38:08;;;;;;;18.05;11.50;;;;;;;21.44;53.49;101650.19;5085215;28;20053;-69
2022/05/10 07:40:36;;;;;;;19.33;11.70;;;;;;;21.49;53.37;101645.38;5102718;28;20577;-69
2022/05/10 07:43:06;;;;;;;14.13;11.25;;;;;;;21.57;53.09;101655.63;5099789;28;20037;-70
2022/05/10 07:45:34;;;;;;;15.13;11.38;;;;;;;21.72;52.95;101646.59;5095208;28;20051;-71
2022/05/10 07:48:02;;;;;;;15.95;11.55;;;;;;;22.02;52.41;101648.25;5110585;28;20469;-69
2022/05/10 07:50:30;;;;;;;19.33;11.10;;;;;;;22.38;51.70;101648.59;5078302;28;20149;-69
2022/05/10 07:53:06;;;;;;;15.70;10.77;;;;;;;22.52;51.09;101642.28;5109953;28;20044;-69
2022/05/10 07:55:35;;;;;;;18.27;10.73;;;;;;;22.67;51.23;101652.94;5101132;27;20074;-69
2022/05/10 07:58:04;;;;;;;12.95;10.30;;;;;;;22.86;50.37;101639.94;5105749;28;20059;-68
2022/05/10 08:00:35;;;;;;;13.48;9.93;;;;;;;23.02;49.63;101639.72;5100555;28;20494;-69
2022/05/10 08:03:19;;;;;;;14.68;9.57;;;;;;;23.11;48.72;101638.22;5101439;28;20083;-68
2022/05/10 08:05:47;;;;;;;11.68;9.25;;;;;;;23.15;48.43;101634.31;5096275;28;20033;-69
2022/05/10 08:08:25;;;;;;;15.63;9.88;;;;;;;23.30;48.54;101640.47;5109511;28;20787;-70
2022/05/10 08:11:03;;;;;;;17.02;9.75;;;;;;;23.47;48.53;101641.09;5091110;28;20559;-70
2022/05/10 08:13:33;;;;;;;12.75;9.55;;;;;;;23.60;47.85;101631.16;5108970;28;20144;-70
2022/05/10 08:16:00;;;;;;;17.38;9.52;;;;;;;23.70;47.78;101631.34;5109338;28;20043;-69
2022/05/10 08:18:28;;;;;;;11.05;8.50;;;;;;;23.86;48.00;101626.53;5107592;28;20123;-70
2022/05/10 08:20:59;;;;;;;13.55;8.95;;;;;;;24.03;47.57;101632.53;5106287;28;20047;-71
2022/05/10 08:23:32;;;;;;;15.02;8.57;;;;;;;24.21;47.11;101629.41;5115127;28;20040;-69
2022/05/10 08:26:00;;;;;;;14.98;8.50;;;;;;;24.34;46.41;101622.97;5101185;28;20123;-70
2022/05/10 08:28:31;;;;;;;13.20;8.00;;;;;;;24.52;44.97;101616.28;5104195;27;20308;-69
2022/05/10 08:30:58;;;;;;;19.35;8.35;;;;;;;24.63;44.82;101617.16;5106736;28;20059;-69
2022/05/10 08:33:32;;;;;;;14.43;8.02;;;;;;;24.73;44.41;101621.84;5106832;28;20502;-69
2022/05/10 08:36:00;;;;;;;20.27;8.30;;;;;;;24.76;43.52;101614.41;5099268;28;20079;-70
2022/05/10 08:38:30;;;;;;;17.40;8.23;;;;;;;24.76;43.82;101616.22;5110086;28;20040;-69
2022/05/10 08:41:07;;;;;;;15.38;8.63;;;;;;;24.74;44.44;101618.19;5112898;28;20137;-69
2022/05/10 08:44:03;;;;;;;25.35;9.00;;;;;;;24.65;43.81;101611.66;5109531;28;20051;-70
2022/05/10 08:46:38;;;;;;;22.88;8.32;;;;;;;24.60;44.16;101616.53;5110534;28;20051;-70
2022/05/10 08:49:14;;;;;;;16.10;8.02;;;;;;;24.61;43.92;101610.16;5107265;28;20501;-69
2022/05/10 08:51:41;;;;;;;9.75;8.02;;;;;;;24.69;43.72;101609.59;5101196;28;20043;-70
2022/05/10 08:54:09;;;;;;;12.82;7.40;;;;;;;24.83;43.34;101612.06;5107672;28;20064;-70
2022/05/10 08:56:53;;;;;;;10.13;7.53;;;;;;;24.98;41.94;101601.88;5102712;28;20043;-70
2022/05/10 08:59:49;;;;;;;9.48;7.05;;;;;;;25.06;43.06;101599.47;5102189;28;20059;-70
2022/05/10 09:02:46;;;;;;;15.18;7.70;;;;;;;25.25;43.08;101606.06;5106690;28;20036;-70
2022/05/10 09:05:28;;;;;;;15.10;7.35;;;;;;;25.30;42.36;101589.50;5094371;28;20434;-68
2022/05/10 09:08:27;;;;;;;10.35;6.78;;;;;;;25.31;42.38;101594.75;5080741;28;20114;-69
2022/05/10 09:11:14;;;;;;;19.45;8.05;;;;;;;25.16;41.45;101591.47;5096989;28;20102;-68
2022/05/10 09:13:45;;;;;;;10.20;6.97;;;;;;;25.03;42.08;101585.38;5096511;28;20043;-67
2022/05/10 09:16:14;;;;;;;14.25;7.13;;;;;;;24.87;42.31;101583.03;5086270;28;20051;-68
2022/05/10 09:18:52;;;;;;;11.35;6.70;;;;;;;24.72;42.77;101577.88;5092257;28;20063;-67
2022/05/10 09:21:27;;;;;;;11.27;6.65;;;;;;;24.63;42.30;101578.56;5083598;28;20497;-68
2022/05/10 09:24:26;;;;;;;12.70;6.82;;;;;;;24.63;42.74;101583.97;5086871;28;20116;-68
2022/05/10 09:27:05;;;;;;;34.20;7.57;;;;;;;24.66;42.39;101570.25;5094638;28;20512;-69
2022/05/10 09:29:48;;;;;;;9.57;6.40;;;;;;;24.71;42.11;101573.47;5106512;28;20040;-69
2022/05/10 09:35:29;;;;;;;14.07;5.45;;;;;;;24.99;40.74;101575.78;5111187;28;20044;-70
2022/05/10 09:38:06;;;;;;;11.02;5.45;;;;;;;25.12;39.59;101568.44;5095248;28;20039;-70
2022/05/10 09:40:44;;;;;;;9.52;5.10;;;;;;;25.13;39.77;101564.75;5099919;28;20041;-70
2022/05/10 09:43:31;;;;;;;19.33;5.72;;;;;;;25.27;39.78;101574.44;5109909;28;20040;-71
2022/05/10 09:46:20;;;;;;;15.50;6.20;;;;;;;25.51;39.56;101559.91;5112015;28;20068;-69
2022/05/10 09:48:48;;;;;;;12.43;4.97;;;;;;;25.80;39.12;101572.81;5113876;28;20036;-69
2022/05/10 09:51:28;;;;;;;20.08;5.70;;;;;;;25.95;38.55;101558.03;5101629;28;20037;-69
2022/05/10 09:53:57;;;;;;;9.70;4.70;;;;;;;26.22;38.77;101559.38;5099166;28;20568;-69
2022/05/10 09:56:24;;;;;;;13.98;5.13;;;;;;;26.45;37.97;101559.25;5111370;28;20068;-69
2022/05/10 09:59:15;;;;;;;17.48;6.32;;;;;;;26.55;37.33;101552.06;5104689;28;20085;-70
2022/05/10 10:01:54;;;;;;;20.10;5.25;;;;;;;26.60;37.54;101563.34;5079832;28;20040;-70
2022/05/10 10:04:37;;;;;;;14.68;4.57;;;;;;;26.57;37.07;101552.78;5104006;28;20123;-70
2022/05/10 10:07:20;;;;;;;21.67;5.53;;;;;;;26.50;36.39;101555.16;5113266;28;20040;-70
2022/05/10 10:10:17;;;;;;;11.68;4.60;;;;;;;26.33;36.43;101547.69;5098799;28;20064;-68
2022/05/10 10:12:49;;;;;;;10.38;4.65;;;;;;;26.20;36.59;101548.72;5102736;28;20127;-69
2022/05/10 10:15:37;;;;;;;11.02;4.75;;;;;;;26.18;36.71;101548.00;5106896;28;20109;-69
2022/05/10 10:18:09;;;;;;;10.68;4.53;;;;;;;26.31;36.74;101544.25;5103794;28;20040;-70
2022/05/10 10:20:56;;;;;;;12.65;4.70;;;;;;;26.51;36.15;101540.66;5099399;28;20097;-69
2022/05/10 10:23:38;;;;;;;8.32;4.45;;;;;;;26.71;35.65;101535.34;5105659;28;20044;-69
2022/05/10 10:26:19;;;;;;;9.25;4.97;;;;;;;26.90;35.27;101531.91;5104288;28;20528;-70
2022/05/10 10:29:16;;;;;;;14.63;4.05;;;;;;;27.02;35.96;101539.88;5102337;28;20111;-70
2022/05/10 10:31:59;;;;;;;14.02;4.47;;;;;;;27.35;35.17;101535.13;5099267;27;20029;-65
2022/05/10 10:35:02;;;;;;;63.30;8.55;;;;;;;27.46;33.82;101529.63;5095002;28;20116;-64
2022/05/10 10:37:43;;;;;;;9.27;3.67;;;;;;;27.51;34.33;101530.06;5107421;28;20064;-65
2022/05/10 10:40:30;;;;;;;10.20;4.03;;;;;;;27.69;34.10;101530.19;5092494;28;20514;-64
2022/05/10 10:43:22;;;;;;;17.10;4.15;;;;;;;27.73;33.72;101528.06;5112111;28;20052;-65
2022/05/10 10:46:01;;;;;;;8.43;3.53;;;;;;;27.68;34.19;101527.63;5111790;28;20074;-65
2022/05/10 10:48:47;;;;;;;9.73;3.65;;;;;;;27.75;33.73;101526.06;5103619;28;20048;-63
2022/05/10 10:51:16;;;;;;;11.80;3.40;;;;;;;27.93;33.73;101514.53;5100197;28;20120;-64
2022/05/10 10:53:46;;;;;;;6.68;3.38;;;;;;;28.20;33.55;101514.63;5112314;28;20038;-65
2022/05/10 10:56:47;;;;;;;10.75;3.38;;;;;;;28.23;31.97;101512.66;5107092;28;20039;-69
2022/05/10 10:59:42;;;;;;;6.75;3.42;;;;;;;28.25;31.92;101489.81;5104619;28;20620;-70
2022/05/10 11:02:38;;;;;;;7.57;3.33;;;;;;;28.45;31.96;101495.16;5106732;28;20039;-68
2022/05/10 11:05:47;;;;;;;13.00;3.40;;;;;;;28.62;31.76;101493.53;5105494;28;20135;-69
2022/05/10 11:08:57;;;;;;;18.95;3.40;;;;;;;28.66;31.26;101486.78;5094991;28;20047;-68
2022/05/10 11:11:38;;;;;;;28.20;4.05;;;;;;;28.64;30.57;101477.97;5101662;28;20051;-67
2022/05/10 11:14:05;;;;;;;23.42;3.67;;;;;;;28.95;30.92;101473.09;5102276;28;20101;-68
2022/05/10 11:16:59;;;;;;;12.30;3.22;;;;;;;28.94;30.38;101473.25;5111486;28;20044;-69
2022/05/10 11:19:43;;;;;;;;;;;;;;;29.21;30.35;101469.63;5076802;28;20040;-69
2022/05/10 11:22:45;;;;;;;10.85;3.45;;;;;;;29.01;30.50;101479.78;5083683;28;19924;-69
2022/05/10 11:25:59;;;;;;;21.23;3.92;;;;;;;28.97;29.90;101475.66;5099397;28;20087;-68
2022/05/10 11:28:50;;;;;;;10.87;3.07;;;;;;;29.48;29.44;101467.88;5100033;28;20045;-69
2022/05/10 11:31:44;;;;;;;9.07;3.33;;;;;;;29.64;28.62;101461.75;5109657;27;20826;-69
2022/05/10 11:34:58;;;;;;;19.20;3.78;;;;;;;29.63;28.88;101457.31;5111737;28;20047;-69
2022/05/10 11:37:43;;;;;;;18.80;3.40;;;;;;;29.38;29.44;101467.97;5093187;28;20051;-70
2022/05/10 11:40:31;;;;;;;23.70;3.78;;;;;;;29.29;27.83;101466.13;5108475;28;20048;-68
2022/05/10 11:43:32;;;;;;;26.63;4.15;;;;;;;29.56;28.67;101457.09;5099203;28;20075;-67
2022/05/10 11:46:40;;;;;;;20.55;3.65;;;;;;;29.85;28.22;101447.78;5097722;28;20047;-69
2022/05/10 11:49:32;;;;;;;14.50;3.58;;;;;;;29.85;28.83;101455.09;5103182;27;20079;-68
2022/05/10 11:52:36;;;;;;;8.55;2.92;;;;;;;29.93;28.06;101457.00;5120499;27;20119;-68
2022/05/10 11:55:27;;;;;;;13.15;3.08;;;;;;;29.86;28.14;101441.34;5122396;27;20079;-69
2022/05/10 11:58:03;;;;;;;8.15;3.10;;;;;;;29.54;28.37;101436.53;5103073;28;20032;-68
2022/05/10 12:00:30;;;;;;;11.38;3.10;;;;;;;29.31;28.98;101436.13;5111834;28;20048;-68
2022/05/10 12:03:10;;;;;;;5.45;3.30;;;;;;;29.12;29.14;101433.41;5115048;28;20534;-69